createdAt,value
2022-08-20T00:03:50.299Z,21.00
2022-08-20T00:08:57.190Z,21.00
2022-08-20T00:14:05.068Z,21.00
2022-08-20T00:19:10.223Z,20.90
2022-08-20T00:24:13.978Z,20.90
2022-08-20T00:29:20.114Z,21.00
2022-08-20T00:34:24.257Z,20.90
2022-08-20T00:39:27.887Z,20.90
2022-08-20T00:44:33.048Z,20.90
2022-08-20T00:49:36.739Z,20.90
2022-08-20T00:54:44.660Z,20.80
2022-08-20T00:59:51.745Z,20.90
2022-08-20T01:04:56.738Z,20.80
2022-08-20T01:10:01.385Z,20.80
2022-08-20T01:15:11.236Z,20.80
2022-08-20T01:20:17.816Z,20.80
2022-08-20T01:25:29.699Z,20.70
2022-08-20T01:30:35.762Z,20.70
2022-08-20T01:35:40.963Z,20.70
2022-08-20T01:41:08.336Z,20.60
2022-08-20T01:46:14.286Z,20.60
2022-08-20T01:51:22.808Z,20.60
2022-08-20T01:56:30.059Z,20.50
2022-08-20T02:01:46.309Z,20.50
2022-08-20T02:06:56.188Z,20.40
2022-08-20T02:12:03.064Z,20.40
2022-08-20T02:17:08.135Z,20.40
2022-08-20T02:22:19.373Z,20.30
2022-08-20T02:27:23.878Z,20.30
2022-08-20T02:32:33.936Z,20.20
2022-08-20T02:37:39.199Z,20.20
2022-08-20T02:42:43.225Z,20.20
2022-08-20T02:47:50.764Z,20.20
2022-08-20T02:52:54.776Z,20.20
2022-08-20T02:58:00.339Z,20.10
2022-08-20T03:03:06.159Z,20.10
2022-08-20T03:08:12.159Z,20.10
2022-08-20T03:13:17.406Z,20.00
2022-08-20T03:18:23.182Z,20.00
2022-08-20T03:23:27.073Z,20.00
2022-08-20T03:28:30.793Z,20.00
2022-08-20T03:33:36.606Z,19.90
2022-08-20T03:38:43.107Z,19.90
2022-08-20T03:43:46.765Z,19.90
2022-08-20T03:48:59.610Z,19.80
2022-08-20T03:54:04.508Z,19.70
2022-08-20T03:59:08.285Z,19.70
2022-08-20T04:04:13.250Z,19.70
2022-08-20T04:09:17.133Z,19.60
2022-08-20T04:14:20.907Z,19.60
2022-08-20T04:19:26.146Z,19.60
2022-08-20T04:24:32.034Z,19.60
2022-08-20T04:29:36.875Z,19.60
2022-08-20T04:34:41.928Z,19.50
2022-08-20T04:40:05.983Z,19.50
2022-08-20T04:45:10.291Z,19.50
2022-08-20T04:50:15.636Z,19.50
2022-08-20T04:55:19.696Z,19.50
2022-08-20T05:00:23.370Z,19.50
2022-08-20T05:05:29.152Z,19.50
2022-08-20T05:10:32.932Z,19.50
2022-08-20T05:15:38.638Z,19.50
2022-08-20T05:20:44.002Z,19.50
2022-08-20T05:25:51.569Z,19.40
2022-08-20T05:30:55.449Z,19.50
2022-08-20T05:36:00.570Z,19.50
2022-08-20T05:41:04.936Z,19.50
2022-08-20T05:46:08.883Z,19.50
2022-08-20T05:51:15.300Z,19.40
2022-08-20T05:56:19.072Z,19.40
2022-08-20T06:01:25.393Z,19.40
2022-08-20T06:06:44.261Z,19.50
2022-08-20T06:11:50.345Z,19.50
2022-08-20T06:16:57.955Z,19.50
2022-08-20T06:22:17.362Z,19.50
2022-08-20T06:27:24.305Z,19.50
2022-08-20T06:32:32.109Z,19.50
2022-08-20T06:37:40.488Z,19.40
2022-08-20T06:42:48.427Z,19.40
2022-08-20T06:47:53.433Z,19.50
2022-08-20T06:52:59.704Z,19.50
2022-08-20T06:58:05.790Z,19.50
2022-08-20T07:03:09.774Z,19.40
2022-08-20T07:08:18.756Z,19.40
2022-08-20T07:13:22.748Z,19.40
2022-08-20T07:18:29.253Z,19.50
2022-08-20T07:23:34.617Z,19.40
2022-08-20T07:28:38.470Z,19.40
2022-08-20T07:33:42.761Z,19.50
2022-08-20T07:38:51.075Z,19.50
2022-08-20T07:43:54.917Z,19.60
2022-08-20T07:48:58.753Z,19.60
2022-08-20T07:54:03.781Z,19.70
2022-08-20T07:59:07.477Z,19.70
2022-08-20T08:04:11.173Z,19.70
2022-08-20T08:09:16.451Z,19.70
2022-08-20T08:14:26.738Z,19.80
2022-08-20T08:19:37.836Z,19.90
2022-08-20T08:24:56.719Z,19.90
2022-08-20T08:30:01.466Z,20.00
2022-08-20T08:35:09.021Z,20.20
2022-08-20T08:40:14.433Z,20.30
2022-08-20T08:45:20.703Z,20.30
2022-08-20T08:50:53.396Z,20.40
2022-08-20T08:55:54.640Z,20.50
2022-08-20T09:01:01.718Z,20.60
2022-08-20T09:06:08.893Z,20.70
2022-08-20T09:11:14.011Z,20.90
2022-08-20T09:16:18.871Z,21.10
2022-08-20T09:21:22.589Z,21.30
2022-08-20T09:26:29.262Z,21.50
2022-08-20T09:31:33.074Z,21.80
2022-08-20T09:36:36.949Z,22.20
2022-08-20T09:41:42.230Z,22.60
2022-08-20T09:46:45.988Z,23.10
2022-08-20T09:51:49.758Z,23.40
2022-08-20T09:56:54.858Z,23.60
2022-08-20T10:01:58.631Z,23.90
2022-08-20T10:07:02.563Z,23.70
2022-08-20T10:12:08.357Z,23.40
2022-08-20T10:17:12.006Z,23.20
2022-08-20T10:22:15.707Z,23.00
2022-08-20T10:27:20.761Z,22.80
2022-08-20T10:32:24.488Z,22.70
2022-08-20T10:37:28.472Z,22.90
2022-08-20T10:42:33.624Z,22.80
2022-08-20T10:47:37.455Z,22.70
2022-08-20T10:52:41.121Z,22.80
2022-08-20T10:57:46.572Z,23.00
2022-08-20T11:02:50.243Z,23.30
2022-08-20T11:07:56.689Z,23.20
2022-08-20T11:13:02.366Z,23.20
2022-08-20T11:18:07.247Z,23.40
2022-08-20T11:23:10.931Z,23.70
2022-08-20T11:28:16.465Z,23.90
2022-08-20T11:33:35.077Z,24.30
2022-08-20T11:38:38.802Z,24.60
2022-08-20T11:43:59.477Z,25.00
2022-08-20T11:49:07.590Z,25.10
2022-08-20T11:54:11.327Z,25.10
2022-08-20T11:59:17.194Z,25.00
2022-08-20T12:04:21.007Z,25.10
2022-08-20T12:09:25.473Z,25.30
2022-08-20T12:14:30.571Z,25.40
2022-08-20T12:19:34.232Z,25.40
2022-08-20T12:24:38.309Z,25.40
2022-08-20T12:29:44.543Z,25.30
2022-08-20T12:34:48.797Z,25.10
2022-08-20T12:39:54.935Z,25.30
2022-08-20T12:45:00.860Z,25.40
2022-08-20T12:50:09.158Z,25.60
2022-08-20T12:55:16.054Z,25.50
2022-08-20T13:00:23.751Z,25.30
2022-08-20T13:05:28.750Z,25.00
2022-08-20T13:10:34.926Z,24.90
2022-08-20T13:15:40.546Z,24.90
2022-08-20T13:20:44.859Z,25.00
2022-08-20T13:25:48.556Z,24.90
2022-08-20T13:30:53.655Z,24.70
2022-08-20T13:35:57.902Z,24.50
2022-08-20T13:41:01.563Z,24.40
2022-08-20T13:46:06.937Z,24.50
2022-08-20T13:51:11.179Z,24.50
2022-08-20T13:56:14.878Z,24.40
2022-08-20T14:01:19.984Z,24.30
2022-08-20T14:06:23.758Z,24.20
2022-08-20T14:11:27.449Z,24.20
2022-08-20T14:16:35.078Z,24.20
2022-08-20T14:21:39.533Z,24.10
2022-08-20T14:26:43.279Z,24.00
2022-08-20T14:31:48.273Z,23.90
2022-08-20T14:36:52.156Z,23.80
2022-08-20T14:41:55.890Z,23.90
2022-08-20T14:47:11.956Z,24.00
2022-08-20T14:52:17.858Z,24.00
2022-08-20T14:57:22.177Z,23.90
2022-08-20T15:02:27.757Z,23.90
2022-08-20T15:07:32.833Z,23.90
2022-08-20T15:12:36.726Z,23.90
2022-08-20T15:17:45.054Z,23.90
2022-08-20T15:22:49.543Z,23.90
2022-08-20T15:28:00.699Z,23.80
2022-08-20T15:33:06.886Z,23.80
2022-08-20T15:38:10.619Z,23.90
2022-08-20T15:43:14.279Z,23.90
2022-08-20T15:48:21.853Z,23.90
2022-08-20T15:53:31.493Z,23.80
2022-08-20T15:58:40.720Z,23.70
2022-08-20T16:04:17.628Z,23.80
2022-08-20T16:09:39.477Z,23.70
2022-08-20T16:14:45.912Z,23.60
2022-08-20T16:19:57.575Z,23.60
2022-08-20T16:25:02.493Z,23.60
2022-08-20T16:30:11.089Z,23.50
2022-08-20T16:35:30.120Z,23.40
2022-08-20T16:40:39.751Z,23.40
2022-08-20T16:45:50.855Z,23.40
2022-08-20T16:51:02.168Z,23.30
2022-08-20T16:56:06.686Z,23.20
2022-08-20T17:01:13.863Z,23.20
2022-08-20T17:06:27.688Z,23.10
2022-08-20T17:11:33.229Z,23.10
2022-08-20T17:16:39.782Z,23.00
2022-08-20T17:21:45.000Z,23.00
2022-08-20T17:27:00.094Z,22.90
2022-08-20T17:32:17.145Z,22.90
2022-08-20T17:37:24.957Z,22.90
2022-08-20T17:42:29.914Z,22.80
2022-08-20T17:47:37.181Z,22.80
2022-08-20T17:52:48.201Z,22.70
2022-08-20T17:57:57.907Z,22.70
2022-08-20T18:03:09.104Z,22.60
2022-08-20T18:08:31.604Z,22.50
2022-08-20T18:13:53.893Z,22.50
2022-08-20T18:19:05.838Z,22.40
2022-08-20T18:24:19.448Z,22.30
2022-08-20T18:29:30.649Z,22.30
2022-08-20T18:34:40.743Z,22.20
2022-08-20T18:39:48.529Z,22.20
2022-08-20T18:44:54.284Z,22.10
2022-08-20T18:50:15.791Z,22.10
2022-08-20T18:55:34.142Z,22.00
2022-08-20T19:00:41.336Z,22.00
2022-08-20T19:06:06.751Z,21.80
2022-08-20T19:11:29.712Z,21.80
2022-08-20T19:16:38.121Z,21.70
2022-08-20T19:21:42.884Z,21.70
2022-08-20T19:26:53.200Z,21.60
2022-08-20T19:32:01.127Z,21.60
2022-08-20T19:37:27.646Z,21.50
2022-08-20T19:42:41.570Z,21.50
2022-08-20T19:47:52.834Z,21.40
2022-08-20T19:53:04.531Z,21.40
2022-08-20T19:58:26.232Z,21.30
2022-08-20T20:03:32.770Z,21.30
2022-08-20T20:08:40.667Z,21.20
2022-08-20T20:13:46.815Z,21.20
2022-08-20T20:19:09.285Z,21.10
2022-08-20T20:24:24.225Z,21.10
2022-08-20T20:29:36.035Z,21.00
2022-08-20T20:34:55.575Z,20.90
2022-08-20T20:40:04.568Z,20.90
2022-08-20T20:45:20.197Z,20.80
2022-08-20T20:50:31.269Z,20.80
2022-08-20T20:55:37.364Z,20.70
2022-08-20T21:00:42.451Z,20.70
2022-08-20T21:05:46.300Z,20.60
2022-08-20T21:10:50.091Z,20.50
2022-08-20T21:15:55.298Z,20.50
2022-08-20T21:20:59.076Z,20.40
2022-08-20T21:26:03.922Z,20.40
2022-08-20T21:31:09.286Z,20.40
2022-08-20T21:36:17.133Z,20.30
2022-08-20T21:41:30.051Z,20.20
2022-08-20T21:46:35.372Z,20.20
2022-08-20T21:51:39.022Z,20.20
2022-08-20T21:56:43.280Z,20.20
2022-08-20T22:01:49.101Z,20.10
2022-08-20T22:06:52.908Z,20.10
2022-08-20T22:11:57.572Z,20.00
2022-08-20T22:17:06.455Z,20.00
2022-08-20T22:22:11.404Z,19.90
2022-08-20T22:27:15.829Z,19.90
2022-08-20T22:32:21.081Z,19.80
2022-08-20T22:37:37.065Z,19.80
2022-08-20T22:42:40.891Z,19.80
2022-08-20T22:47:46.498Z,19.70
2022-08-20T22:52:50.211Z,19.70
2022-08-20T22:57:53.938Z,19.60
2022-08-20T23:03:00.661Z,19.60
2022-08-20T23:08:05.520Z,19.50
2022-08-20T23:13:09.503Z,19.40
2022-08-20T23:18:16.837Z,19.40
2022-08-20T23:23:21.056Z,19.40
2022-08-20T23:28:26.502Z,19.40
2022-08-20T23:33:32.084Z,19.30
2022-08-20T23:38:35.894Z,19.30
2022-08-20T23:43:40.094Z,19.20
2022-08-20T23:48:45.249Z,19.20
2022-08-20T23:53:49.149Z,19.20
2022-08-20T23:58:52.952Z,19.10
